createdAt,value
2019-04-28T00:02:17.546Z,100661.95
2019-04-28T00:04:47.163Z,100664.47
2019-04-28T00:07:16.753Z,100666.99
2019-04-28T00:09:46.319Z,100669.03
2019-04-28T00:12:15.791Z,100664.66
2019-04-28T00:14:45.747Z,100658.13
2019-04-28T00:17:15.261Z,100662.09
2019-04-28T00:19:44.832Z,100663.55
2019-04-28T00:22:31.337Z,100664.69
2019-04-28T00:25:02.509Z,100659.84
2019-04-28T00:27:32.012Z,100659.37
2019-04-28T00:30:02.091Z,100657.75
2019-04-28T00:32:32.534Z,100654.20
2019-04-28T00:35:02.528Z,100662.78
2019-04-28T00:37:33.224Z,100655.11
2019-04-28T00:40:02.817Z,100661.17
2019-04-28T00:42:32.293Z,100656.80
2019-04-28T00:45:02.047Z,100657.70
2019-04-28T00:47:31.751Z,100657.47
2019-04-28T00:50:02.096Z,100653.09
2019-04-28T00:52:32.161Z,100660.56
2019-04-28T00:55:01.815Z,100661.36
2019-04-28T00:57:31.369Z,100654.23
2019-04-28T01:00:02.458Z,100663.87
2019-04-28T01:02:41.254Z,100658.36
2019-04-28T01:05:11.883Z,100659.74
2019-04-28T01:07:41.601Z,100661.13
2019-04-28T01:10:12.831Z,100656.98
2019-04-28T01:12:42.419Z,100656.20
2019-04-28T01:15:14.310Z,100654.23
2019-04-28T01:17:57.189Z,100655.95
2019-04-28T01:20:26.834Z,100656.75
2019-04-28T01:22:56.361Z,100655.95
2019-04-28T01:25:25.860Z,100652.38
2019-04-28T01:27:55.982Z,100652.96
2019-04-28T01:30:29.882Z,100653.28
2019-04-28T01:33:03.795Z,100652.72
2019-04-28T01:35:33.419Z,100648.59
2019-04-28T01:38:02.887Z,100649.39
2019-04-28T01:40:33.915Z,100655.13
2019-04-28T01:43:03.467Z,100652.61
2019-04-28T01:45:32.957Z,100656.75
2019-04-28T01:48:02.485Z,100659.27
2019-04-28T01:50:31.972Z,100662.02
2019-04-28T01:53:01.444Z,100666.16
2019-04-28T01:55:30.918Z,100671.91
2019-04-28T01:58:00.398Z,100669.15
2019-04-28T02:00:37.295Z,100674.66
2019-04-28T02:03:10.318Z,100669.39
2019-04-28T02:05:40.549Z,100671.00
2019-04-28T02:08:10.320Z,100670.77
2019-04-28T02:10:40.249Z,100667.69
2019-04-28T02:13:11.368Z,100665.73
2019-04-28T02:15:40.980Z,100670.45
2019-04-28T02:18:10.474Z,100670.69
2019-04-28T02:20:41.678Z,100682.50
2019-04-28T02:23:15.526Z,100675.61
2019-04-28T02:25:45.064Z,100678.37
2019-04-28T02:28:14.558Z,100681.05
2019-04-28T02:30:49.189Z,100681.60
2019-04-28T02:33:15.320Z,100683.22
2019-04-28T02:35:45.055Z,100684.83
2019-04-28T02:38:14.557Z,100685.07
2019-04-28T02:40:44.179Z,100685.55
2019-04-28T02:43:13.759Z,100680.86
2019-04-28T02:45:43.622Z,100683.03
2019-04-28T02:48:14.824Z,100684.99
2019-04-28T02:50:50.890Z,100690.82
2019-04-28T02:53:33.171Z,100687.52
2019-04-28T02:56:01.192Z,100687.83
2019-04-28T02:58:31.375Z,100690.34
2019-04-28T03:01:11.155Z,100690.10
2019-04-28T03:03:32.201Z,100692.62
2019-04-28T03:06:01.847Z,100699.03
2019-04-28T03:08:31.343Z,100686.39
2019-04-28T03:11:02.435Z,100692.73
2019-04-28T03:13:32.101Z,100686.16
2019-04-28T03:16:01.944Z,100691.91
2019-04-28T03:18:31.946Z,100693.87
2019-04-28T03:21:04.238Z,100696.04
2019-04-28T03:23:33.201Z,100694.90
2019-04-28T03:26:04.298Z,100698.48
2019-04-28T03:28:33.897Z,100697.89
2019-04-28T03:31:36.597Z,100698.13
2019-04-28T03:33:47.429Z,100694.58
2019-04-28T03:36:15.617Z,100705.26
2019-04-28T03:38:41.581Z,100702.50
2019-04-28T03:41:11.814Z,100702.74
2019-04-28T03:43:41.302Z,100700.23
2019-04-28T03:46:15.101Z,100700.15
2019-04-28T03:48:44.595Z,100700.39
2019-04-28T03:51:14.102Z,100697.28
2019-04-28T03:53:43.582Z,100696.97
2019-04-28T03:56:13.176Z,100696.86
2019-04-28T03:58:42.751Z,100694.61
2019-04-28T04:01:12.252Z,100693.47
2019-04-28T04:03:42.036Z,100698.09
2019-04-28T04:06:11.446Z,100696.12
2019-04-28T04:08:41.095Z,100701.31
2019-04-28T04:11:11.003Z,100696.05
2019-04-28T04:13:51.458Z,100693.52
2019-04-28T04:16:31.748Z,100697.08
2019-04-28T04:19:05.886Z,100689.87
2019-04-28T04:21:37.053Z,100699.75
2019-04-28T04:24:06.552Z,100698.37
2019-04-28T04:26:36.034Z,100701.37
2019-04-28T04:29:05.655Z,100699.98
2019-04-28T04:31:35.210Z,100697.23
2019-04-28T04:34:04.778Z,100702.39
2019-04-28T04:36:34.474Z,100704.60
2019-04-28T04:39:06.399Z,100707.01
2019-04-28T04:41:36.238Z,100711.97
2019-04-28T04:44:05.861Z,100717.48
2019-04-28T04:46:35.337Z,100718.27
2019-04-28T04:49:24.269Z,100723.23
2019-04-28T04:51:53.760Z,100719.65
2019-04-28T04:54:23.221Z,100719.58
2019-04-28T04:56:52.707Z,100726.70
2019-04-28T04:59:22.173Z,100732.72
2019-04-28T05:02:02.010Z,100732.14
2019-04-28T05:04:36.079Z,100737.89
2019-04-28T05:07:05.589Z,100734.34
2019-04-28T05:09:35.047Z,100743.99
2019-04-28T05:12:04.693Z,100742.61
2019-04-28T05:14:34.320Z,100749.27
2019-04-28T05:17:03.784Z,100755.25
2019-04-28T05:19:33.271Z,100749.98
2019-04-28T05:22:03.007Z,100754.36
2019-04-28T05:24:51.134Z,100755.73
2019-04-28T05:27:25.378Z,100756.52
2019-04-28T05:29:56.855Z,100752.63
2019-04-28T05:32:23.969Z,100760.59
2019-04-28T05:34:53.547Z,100758.97
2019-04-28T05:37:23.023Z,100762.55
2019-04-28T05:39:52.738Z,100758.30
2019-04-28T05:42:22.303Z,100763.50
2019-04-28T05:44:51.868Z,100765.91
2019-04-28T05:47:21.526Z,100765.59
2019-04-28T05:49:52.668Z,100765.25
2019-04-28T05:52:35.816Z,100770.45
2019-04-28T05:55:17.093Z,100769.30
2019-04-28T05:57:53.792Z,100769.20
2019-04-28T06:00:25.610Z,100772.19
2019-04-28T06:02:57.041Z,100770.26
2019-04-28T06:05:26.661Z,100768.77
2019-04-28T06:08:06.682Z,100769.83
2019-04-28T06:10:36.283Z,100776.37
2019-04-28T06:13:05.891Z,100776.85
2019-04-28T06:15:35.899Z,100776.85
2019-04-28T06:18:05.498Z,100776.61
2019-04-28T06:20:35.046Z,100778.89
2019-04-28T06:23:04.688Z,100775.66
2019-04-28T06:25:34.194Z,100774.95
2019-04-28T06:28:03.692Z,100785.50
2019-04-28T06:30:33.236Z,100789.16
2019-04-28T06:33:08.206Z,100790.66
2019-04-28T06:35:33.952Z,100793.97
2019-04-28T06:38:03.458Z,100791.69
2019-04-28T06:40:32.954Z,100799.87
2019-04-28T06:43:02.495Z,100793.70
2019-04-28T06:45:31.951Z,100798.20
2019-04-28T06:48:01.443Z,100794.11
2019-04-28T06:50:31.023Z,100792.15
2019-04-28T06:53:02.777Z,100795.43
2019-04-28T06:55:31.874Z,100795.04
2019-04-28T06:58:01.352Z,100797.52
2019-04-28T07:00:30.813Z,100804.94
2019-04-28T07:03:00.310Z,100808.53
2019-04-28T07:05:29.859Z,100812.70
2019-04-28T07:07:59.429Z,100816.00
2019-04-28T07:10:28.882Z,100808.46
2019-04-28T07:12:58.472Z,100811.05
2019-04-28T07:15:28.079Z,100807.31
2019-04-28T07:17:57.720Z,100804.64
2019-04-28T07:20:42.028Z,100801.68
2019-04-28T07:23:12.194Z,100801.72
2019-04-28T07:25:41.704Z,100807.64
2019-04-28T07:28:11.280Z,100807.44
2019-04-28T07:30:41.823Z,100807.13
2019-04-28T07:33:11.425Z,100802.86
2019-04-28T07:35:40.932Z,100805.63
2019-04-28T07:38:10.437Z,100800.59
2019-04-28T07:40:40.033Z,100802.20
2019-04-28T07:43:09.600Z,100814.66
2019-04-28T07:45:39.247Z,100812.91
2019-04-28T07:48:28.148Z,100817.88
2019-04-28T07:50:57.628Z,100825.50
2019-04-28T07:53:32.884Z,100821.36
2019-04-28T07:56:02.406Z,100813.06
2019-04-28T07:58:32.015Z,100821.82
2019-04-28T08:01:01.628Z,100823.20
2019-04-28T08:03:31.141Z,100824.36
2019-04-28T08:06:00.618Z,100825.05
2019-04-28T08:08:30.135Z,100834.52
2019-04-28T08:10:59.622Z,100831.18
2019-04-28T08:13:29.145Z,100834.11
2019-04-28T08:15:58.631Z,100828.56
2019-04-28T08:18:28.104Z,100834.09
2019-04-28T08:20:57.602Z,100825.65
2019-04-28T08:23:47.638Z,100831.55
2019-04-28T08:26:17.414Z,100828.53
2019-04-28T08:28:46.905Z,100829.20
2019-04-28T08:31:18.026Z,100832.42
2019-04-28T08:34:01.669Z,100832.07
2019-04-28T08:36:23.091Z,100831.72
2019-04-28T08:38:52.586Z,100832.72
2019-04-28T08:41:22.097Z,100835.61
2019-04-28T08:43:51.652Z,100832.23
2019-04-28T08:46:21.243Z,100834.45
2019-04-28T08:48:50.778Z,100834.90
2019-04-28T08:51:20.419Z,100831.73
2019-04-28T08:53:49.960Z,100825.34
2019-04-28T08:56:19.471Z,100828.52
2019-04-28T08:58:49.018Z,100832.75
2019-04-28T09:01:18.483Z,100825.14
2019-04-28T09:03:47.976Z,100827.80
2019-04-28T09:06:17.596Z,100827.91
2019-04-28T09:08:47.124Z,100816.20
2019-04-28T09:11:16.570Z,100832.27
2019-04-28T09:13:46.149Z,100827.52
2019-04-28T09:16:15.654Z,100823.75
2019-04-28T09:18:45.199Z,100828.59
2019-04-28T09:21:14.843Z,100831.27
2019-04-28T09:23:44.288Z,100832.38
2019-04-28T09:26:13.815Z,100836.10
2019-04-28T09:28:43.397Z,100842.35
2019-04-28T09:31:12.964Z,100841.69
2019-04-28T09:33:42.468Z,100843.10
2019-04-28T09:36:12.023Z,100842.93
2019-04-28T09:38:41.810Z,100839.98
2019-04-28T09:41:11.290Z,100843.76
2019-04-28T09:43:55.649Z,100843.58
2019-04-28T09:46:26.790Z,100841.42
2019-04-28T09:48:56.256Z,100851.19
2019-04-28T09:51:25.777Z,100847.86
2019-04-28T09:53:55.349Z,100849.29
2019-04-28T09:56:24.877Z,100849.55
2019-04-28T09:58:54.489Z,100854.66
2019-04-28T10:01:23.956Z,100847.86
2019-04-28T10:03:53.632Z,100839.69
2019-04-28T10:06:23.188Z,100852.14
2019-04-28T10:08:52.767Z,100858.06
2019-04-28T10:11:30.425Z,100860.51
2019-04-28T10:13:53.597Z,100858.56
2019-04-28T10:16:23.241Z,100865.53
2019-04-28T10:18:52.708Z,100871.71
2019-04-28T10:21:22.374Z,100874.06
2019-04-28T10:23:51.855Z,100871.06
2019-04-28T10:26:21.427Z,100869.89
2019-04-28T10:28:50.945Z,100866.21
2019-04-28T10:31:20.704Z,100872.36
2019-04-28T10:33:51.864Z,100871.88
2019-04-28T10:36:21.514Z,100868.06
2019-04-28T10:38:52.734Z,100866.08
2019-04-28T10:41:32.888Z,100858.77
2019-04-28T10:44:02.431Z,100858.03
2019-04-28T10:46:31.977Z,100861.55
2019-04-28T10:49:01.560Z,100853.49
2019-04-28T10:51:31.033Z,100860.57
2019-04-28T10:54:00.536Z,100848.24
2019-04-28T10:56:30.326Z,100852.98
2019-04-28T10:59:00.670Z,100847.42
2019-04-28T11:01:30.189Z,100849.52
2019-04-28T11:04:17.063Z,100844.00
2019-04-28T11:06:46.635Z,100839.55
2019-04-28T11:09:30.081Z,100843.37
2019-04-28T11:11:49.226Z,100836.20
2019-04-28T11:14:18.688Z,100853.67
2019-04-28T11:16:48.324Z,100837.59
2019-04-28T11:19:17.807Z,100845.70
2019-04-28T11:22:06.835Z,100843.66
2019-04-28T11:24:36.382Z,100853.16
2019-04-28T11:27:06.165Z,100851.77
2019-04-28T11:29:35.645Z,100844.44
2019-04-28T11:32:05.240Z,100849.66
2019-04-28T11:34:52.520Z,100855.44
2019-04-28T11:37:22.125Z,100850.54
2019-04-28T11:39:52.198Z,100847.98
2019-04-28T11:42:21.695Z,100845.42
2019-04-28T11:44:51.181Z,100846.75
2019-04-28T11:47:22.345Z,100843.33
2019-04-28T11:49:51.831Z,100844.06
2019-04-28T11:52:21.351Z,100845.77
2019-04-28T11:54:50.847Z,100843.27
2019-04-28T11:57:20.427Z,100846.13
2019-04-28T11:59:49.926Z,100846.38
2019-04-28T12:02:19.432Z,100850.17
2019-04-28T12:04:49.064Z,100853.98
2019-04-28T12:07:18.605Z,100845.66
2019-04-28T12:10:04.201Z,100855.67
2019-04-28T12:12:39.656Z,100854.81
2019-04-28T12:15:29.303Z,100854.20
2019-04-28T12:18:02.883Z,100845.10
2019-04-28T12:20:32.323Z,100842.79
2019-04-28T12:23:01.781Z,100848.87
2019-04-28T12:25:31.346Z,100844.73
2019-04-28T12:28:00.922Z,100844.64
2019-04-28T12:30:30.390Z,100849.37
2019-04-28T12:33:19.331Z,100847.66
2019-04-28T12:35:48.802Z,100859.23
2019-04-28T12:38:18.304Z,100853.02
2019-04-28T12:40:47.892Z,100857.52
2019-04-28T12:43:17.372Z,100862.96
2019-04-28T12:45:47.021Z,100868.20
2019-04-28T12:48:16.580Z,100875.03
2019-04-28T12:50:52.917Z,100875.42
2019-04-28T12:53:23.165Z,100877.42
2019-04-28T12:55:52.639Z,100880.78
2019-04-28T12:58:22.105Z,100875.77
2019-04-28T13:00:53.285Z,100881.80
2019-04-28T13:03:51.945Z,100879.61
2019-04-28T13:06:22.910Z,100889.70
2019-04-28T13:08:52.457Z,100890.03
2019-04-28T13:11:21.981Z,100898.37
2019-04-28T13:13:51.551Z,100901.34
2019-04-28T13:16:21.143Z,100901.75
2019-04-28T13:18:50.720Z,100902.19
2019-04-28T13:21:20.295Z,100898.41
2019-04-28T13:23:49.828Z,100905.86
2019-04-28T13:26:19.363Z,100908.35
2019-04-28T13:28:48.856Z,100908.81
2019-04-28T13:31:18.349Z,100910.20
2019-04-28T13:33:56.411Z,100913.21
2019-04-28T13:36:19.051Z,100909.73
2019-04-28T13:38:48.682Z,100903.91
2019-04-28T13:41:18.190Z,100911.75
2019-04-28T13:43:47.639Z,100906.63
2019-04-28T13:46:17.142Z,100906.58
2019-04-28T13:48:46.648Z,100908.58
2019-04-28T13:51:16.150Z,100901.00
2019-04-28T13:53:45.636Z,100911.45
2019-04-28T13:56:15.170Z,100908.48
2019-04-28T13:58:45.069Z,100908.00
2019-04-28T14:01:25.034Z,100903.31
2019-04-28T14:03:57.105Z,100906.67
2019-04-28T14:06:28.919Z,100904.73
2019-04-28T14:08:58.553Z,100905.79
2019-04-28T14:11:28.069Z,100906.14
2019-04-28T14:13:57.573Z,100909.80
2019-04-28T14:16:27.058Z,100911.19
2019-04-28T14:18:56.688Z,100913.67
2019-04-28T14:21:26.218Z,100913.84
2019-04-28T14:23:55.720Z,100915.73
2019-04-28T14:26:25.257Z,100916.42
2019-04-28T14:28:54.720Z,100919.95
2019-04-28T14:31:24.436Z,100915.69
2019-04-28T14:33:54.027Z,100921.00
2019-04-28T14:36:23.496Z,100921.19
2019-04-28T14:38:53.100Z,100915.91
2019-04-28T14:41:22.633Z,100921.53
2019-04-28T14:43:52.108Z,100923.86
2019-04-28T14:46:21.572Z,100926.64
2019-04-28T14:48:51.127Z,100923.36
2019-04-28T14:51:20.676Z,100917.74
2019-04-28T14:53:50.149Z,100915.13
2019-04-28T14:56:19.622Z,100924.28
2019-04-28T14:58:49.146Z,100924.91
2019-04-28T15:01:38.239Z,100928.52
2019-04-28T15:04:09.397Z,100916.80
2019-04-28T15:06:40.570Z,100922.25
2019-04-28T15:09:26.508Z,100919.83
2019-04-28T15:11:57.625Z,100918.97
2019-04-28T15:14:27.109Z,100921.80
2019-04-28T15:16:56.572Z,100926.80
2019-04-28T15:19:26.099Z,100926.06
2019-04-28T15:21:55.619Z,100927.97
2019-04-28T15:24:25.078Z,100921.08
2019-04-28T15:26:54.584Z,100926.37
2019-04-28T15:29:24.023Z,100930.94
2019-04-28T15:31:53.535Z,100923.83
2019-04-28T15:34:22.979Z,100920.30
2019-04-28T15:36:52.460Z,100929.23
2019-04-28T15:39:21.979Z,100925.14
2019-04-28T15:41:51.466Z,100931.55
2019-04-28T15:44:20.949Z,100922.45
2019-04-28T15:46:50.447Z,100926.47
2019-04-28T15:49:19.932Z,100935.81
2019-04-28T15:51:49.472Z,100932.65
2019-04-28T15:54:19.026Z,100932.03
2019-04-28T15:56:48.492Z,100933.48
2019-04-28T15:59:18.063Z,100933.53
2019-04-28T16:01:47.590Z,100929.64
2019-04-28T16:04:18.419Z,100937.27
2019-04-28T16:06:48.114Z,100932.31
2019-04-28T16:09:17.687Z,100933.11
2019-04-28T16:11:47.246Z,100934.50
2019-04-28T16:14:16.769Z,100947.25
2019-04-28T16:16:46.204Z,100947.60
2019-04-28T16:19:15.711Z,100951.42
2019-04-28T16:21:45.257Z,100951.87
2019-04-28T16:24:15.944Z,100942.09
2019-04-28T16:26:45.494Z,100953.11
2019-04-28T16:29:15.065Z,100948.05
2019-04-28T16:31:44.567Z,100955.07
2019-04-28T16:34:14.049Z,100951.11
2019-04-28T16:36:43.537Z,100948.97
2019-04-28T16:39:13.065Z,100949.92
2019-04-28T16:41:47.534Z,100948.52
2019-04-28T16:44:17.348Z,100946.28
2019-04-28T16:46:47.182Z,100954.67
2019-04-28T16:49:16.763Z,100955.23
2019-04-28T16:51:46.219Z,100957.53
2019-04-28T16:54:15.779Z,100953.39
2019-04-28T16:56:49.592Z,100953.48
2019-04-28T16:59:23.412Z,100970.45
2019-04-28T17:01:57.409Z,100969.77
2019-04-28T17:04:26.982Z,100963.81
2019-04-28T17:06:56.518Z,100968.69
2019-04-28T17:09:26.173Z,100973.43
2019-04-28T17:11:55.706Z,100968.61
2019-04-28T17:14:25.277Z,100976.50
2019-04-28T17:16:54.831Z,100980.93
2019-04-28T17:19:24.648Z,100991.38
2019-04-28T17:21:54.285Z,100988.30
2019-04-28T17:24:23.931Z,100968.87
2019-04-28T17:26:53.472Z,100975.97
2019-04-28T17:29:23.381Z,100983.54
2019-04-28T17:31:53.194Z,100977.35
2019-04-28T17:34:22.757Z,100980.73
2019-04-28T17:36:52.368Z,100978.42
2019-04-28T17:39:23.378Z,100976.09
2019-04-28T17:41:52.883Z,100975.31
2019-04-28T17:44:22.412Z,100977.61
2019-04-28T17:46:51.982Z,100987.48
2019-04-28T17:49:23.234Z,100986.52
2019-04-28T17:51:52.827Z,100979.58
2019-04-28T17:54:22.296Z,100983.36
2019-04-28T17:56:51.797Z,100990.00
2019-04-28T17:59:24.961Z,100993.20
2019-04-28T18:02:11.861Z,100987.97
2019-04-28T18:04:57.831Z,100997.88
2019-04-28T18:07:29.125Z,101001.34
2019-04-28T18:09:58.687Z,101009.02
2019-04-28T18:12:28.323Z,101012.70
2019-04-28T18:14:59.485Z,101015.64
2019-04-28T18:17:39.301Z,101025.27
2019-04-28T18:20:12.127Z,101034.22
2019-04-28T18:22:41.703Z,101038.98
2019-04-28T18:25:11.767Z,101041.89
2019-04-28T18:27:41.281Z,101045.38
2019-04-28T18:30:12.536Z,101053.52
2019-04-28T18:32:52.336Z,101056.69
2019-04-28T18:35:30.709Z,101062.67
2019-04-28T18:38:03.105Z,101071.26
2019-04-28T18:40:40.415Z,101080.53
2019-04-28T18:43:15.931Z,101077.45
2019-04-28T18:45:45.485Z,101086.05
2019-04-28T18:48:15.103Z,101091.22
2019-04-28T18:50:44.707Z,101090.98
2019-04-28T18:53:14.282Z,101101.64
2019-04-28T18:55:43.877Z,101102.89
2019-04-28T18:58:13.360Z,101117.50
2019-04-28T19:00:44.600Z,101113.83
2019-04-28T19:03:14.248Z,101115.91
2019-04-28T19:05:45.388Z,101126.50
2019-04-28T19:08:19.539Z,101128.30
2019-04-28T19:10:56.593Z,101138.20
2019-04-28T19:13:27.722Z,101137.73
2019-04-28T19:16:10.858Z,101147.59
2019-04-28T19:18:42.076Z,101150.92
2019-04-28T19:21:11.562Z,101159.71
2019-04-28T19:23:41.148Z,101166.20
2019-04-28T19:26:10.832Z,101165.41
2019-04-28T19:28:40.477Z,101165.28
2019-04-28T19:31:09.939Z,101174.05
2019-04-28T19:33:39.524Z,101173.61
2019-04-28T19:36:09.162Z,101178.33
2019-04-28T19:38:38.666Z,101175.30
2019-04-28T19:41:08.268Z,101184.66
2019-04-28T19:43:37.852Z,101180.72
2019-04-28T19:46:09.041Z,101185.33
2019-04-28T19:48:38.653Z,101190.96
2019-04-28T19:51:08.143Z,101196.89
2019-04-28T19:53:37.707Z,101200.39
2019-04-28T19:56:11.584Z,101212.33
2019-04-28T19:58:42.750Z,101222.89
2019-04-28T20:01:16.935Z,101214.16
2019-04-28T20:03:46.539Z,101209.26
2019-04-28T20:06:16.073Z,101218.91
2019-04-28T20:08:45.702Z,101223.05
2019-04-28T20:11:16.294Z,101226.05
2019-04-28T20:13:45.829Z,101223.84
2019-04-28T20:16:15.326Z,101227.38
2019-04-28T20:18:44.843Z,101226.23
2019-04-28T20:21:14.523Z,101230.81
2019-04-28T20:23:44.080Z,101232.67
2019-04-28T20:26:13.584Z,101236.16
2019-04-28T20:28:43.131Z,101244.88
2019-04-28T20:31:12.654Z,101242.27
2019-04-28T20:33:42.193Z,101252.04
2019-04-28T20:36:13.294Z,101251.89
2019-04-28T20:38:42.997Z,101249.86
2019-04-28T20:41:22.976Z,101246.45
2019-04-28T20:43:54.111Z,101247.67
2019-04-28T20:46:23.616Z,101247.00
2019-04-28T20:48:53.124Z,101263.58
2019-04-28T20:51:41.995Z,101266.17
2019-04-28T20:54:11.566Z,101258.59
2019-04-28T20:56:41.078Z,101267.53
2019-04-28T20:59:10.521Z,101262.13
2019-04-28T21:01:40.115Z,101269.34
2019-04-28T21:04:09.702Z,101270.55
2019-04-28T21:06:39.154Z,101267.89
2019-04-28T21:09:09.717Z,101272.34
2019-04-28T21:11:39.300Z,101270.80
2019-04-28T21:14:08.755Z,101268.66
2019-04-28T21:16:38.331Z,101269.55
2019-04-28T21:19:07.798Z,101279.20
2019-04-28T21:21:37.313Z,101280.34
2019-04-28T21:24:06.846Z,101276.31
2019-04-28T21:26:36.316Z,101282.94
2019-04-28T21:29:05.801Z,101284.64
2019-04-28T21:31:35.274Z,101279.23
2019-04-28T21:34:04.839Z,101280.41
2019-04-28T21:36:34.314Z,101290.03
2019-04-28T21:39:05.054Z,101288.19
2019-04-28T21:41:34.586Z,101288.21
2019-04-28T21:44:18.892Z,101287.17
2019-04-28T21:46:52.469Z,101287.47
2019-04-28T21:49:29.413Z,101283.45
2019-04-28T21:51:58.929Z,101283.51
2019-04-28T21:54:28.571Z,101288.48
2019-04-28T21:56:58.019Z,101282.53
2019-04-28T21:59:27.488Z,101289.95
2019-04-28T22:01:58.538Z,101288.91
2019-04-28T22:04:28.285Z,101292.49
2019-04-28T22:06:57.914Z,101287.34
2019-04-28T22:09:27.369Z,101300.52
2019-04-28T22:11:56.923Z,101291.25
2019-04-28T22:14:26.485Z,101291.30
2019-04-28T22:16:57.173Z,101292.43
2019-04-28T22:19:26.699Z,101293.28
2019-04-28T22:21:56.193Z,101295.23
2019-04-28T22:24:42.701Z,101292.51
2019-04-28T22:27:13.151Z,101298.03
2019-04-28T22:29:42.611Z,101294.25
2019-04-28T22:32:12.113Z,101297.00
2019-04-28T22:34:41.649Z,101297.05
2019-04-28T22:37:11.141Z,101292.95
2019-04-28T22:39:40.622Z,101293.84
2019-04-28T22:42:10.279Z,101298.53
2019-04-28T22:44:39.865Z,101291.16
2019-04-28T22:47:09.325Z,101299.39
2019-04-28T22:49:38.805Z,101301.87
2019-04-28T22:52:08.283Z,101310.67
2019-04-28T22:54:41.869Z,101314.25
2019-04-28T22:57:21.682Z,101316.20
2019-04-28T22:59:52.810Z,101323.89
2019-04-28T23:02:23.991Z,101329.15
2019-04-28T23:05:07.027Z,101326.42
2019-04-28T23:07:36.493Z,101325.36
2019-04-28T23:10:09.270Z,101328.14
2019-04-28T23:12:38.716Z,101334.99
2019-04-28T23:15:09.035Z,101332.83
2019-04-28T23:17:38.572Z,101333.67
2019-04-28T23:20:12.276Z,101338.62
2019-04-28T23:22:47.169Z,101344.09
2019-04-28T23:25:14.803Z,101341.40
2019-04-28T23:27:44.312Z,101345.52
2019-04-28T23:30:17.055Z,101344.18
2019-04-28T23:32:46.557Z,101351.59
2019-04-28T23:35:16.027Z,101351.06
2019-04-28T23:37:45.582Z,101347.53
2019-04-28T23:40:15.572Z,101342.60
2019-04-28T23:42:46.696Z,101344.53
2019-04-28T23:45:16.350Z,101344.54
2019-04-28T23:47:45.970Z,101348.95
2019-04-28T23:50:17.437Z,101354.69
2019-04-28T23:52:48.644Z,101350.05
2019-04-28T23:55:18.947Z,101352.52
2019-04-28T23:57:48.474Z,101353.92
